createdAt,value
2023-04-15T00:01:10.214Z,10.39
2023-04-15T00:03:37.508Z,10.46
2023-04-15T00:06:04.984Z,10.35
2023-04-15T00:08:32.051Z,10.22
2023-04-15T00:11:02.933Z,10.01
2023-04-15T00:13:30.212Z,9.71
2023-04-15T00:15:57.366Z,9.58
2023-04-15T00:18:24.754Z,9.58
2023-04-15T00:20:52.576Z,9.50
2023-04-15T00:23:19.689Z,9.65
2023-04-15T00:25:46.986Z,9.56
2023-04-15T00:28:14.156Z,9.71
2023-04-15T00:30:41.681Z,9.67
2023-04-15T00:33:09.774Z,9.76
2023-04-15T00:35:37.523Z,9.80
2023-04-15T00:38:05.976Z,9.77
2023-04-15T00:40:33.391Z,9.78
2023-04-15T00:43:00.473Z,9.78
2023-04-15T00:45:28.212Z,9.79
2023-04-15T00:47:56.072Z,9.83
2023-04-15T00:50:23.188Z,9.84
2023-04-15T00:52:50.262Z,9.63
2023-04-15T00:55:17.298Z,9.56
2023-04-15T00:57:44.635Z,9.51
2023-04-15T01:00:12.169Z,9.70
2023-04-15T01:02:39.683Z,9.77
2023-04-15T01:05:07.777Z,9.74
2023-04-15T01:07:34.871Z,9.51
2023-04-15T01:10:05.648Z,9.67
2023-04-15T01:12:33.174Z,9.51
2023-04-15T01:15:00.821Z,9.41
2023-04-15T01:17:28.264Z,9.46
2023-04-15T01:19:56.570Z,9.38
2023-04-15T01:22:24.173Z,9.35
2023-04-15T01:24:55.343Z,9.43
2023-04-15T01:27:22.708Z,9.41
2023-04-15T01:29:49.776Z,9.43
2023-04-15T01:32:17.215Z,9.31
2023-04-15T01:35:03.496Z,9.35
2023-04-15T01:37:48.429Z,9.23
2023-04-15T01:40:17.410Z,9.19
2023-04-15T01:42:45.826Z,9.13
2023-04-15T01:45:14.161Z,9.08
2023-04-15T01:47:42.539Z,9.18
2023-04-15T01:50:11.675Z,9.17
2023-04-15T01:52:40.078Z,9.03
2023-04-15T01:55:08.626Z,8.94
2023-04-15T01:57:37.126Z,9.02
2023-04-15T02:00:07.702Z,8.94
2023-04-15T02:02:41.874Z,8.90
2023-04-15T02:05:10.970Z,8.69
2023-04-15T02:07:39.418Z,8.70
2023-04-15T02:10:07.899Z,8.78
2023-04-15T02:12:37.173Z,8.72
2023-04-15T02:15:05.790Z,8.57
2023-04-15T02:17:36.438Z,8.69
2023-04-15T02:20:08.690Z,8.72
2023-04-15T02:22:37.212Z,8.65
2023-04-15T02:25:06.154Z,8.55
2023-04-15T02:27:35.846Z,8.52
2023-04-15T02:30:04.383Z,8.45
2023-04-15T02:32:38.071Z,8.41
2023-04-15T02:35:07.681Z,8.54
2023-04-15T02:37:40.755Z,8.52
2023-04-15T02:40:13.929Z,8.52
2023-04-15T02:42:42.828Z,8.56
2023-04-15T02:45:13.803Z,8.25
2023-04-15T02:47:43.993Z,8.28
2023-04-15T02:50:13.320Z,8.22
2023-04-15T02:52:43.249Z,8.27
2023-04-15T02:55:12.681Z,8.38
2023-04-15T02:57:41.733Z,8.44
2023-04-15T03:00:12.254Z,8.38
2023-04-15T03:02:46.181Z,8.25
2023-04-15T03:05:14.853Z,8.13
2023-04-15T03:07:52.449Z,8.07
2023-04-15T03:10:21.390Z,7.94
2023-04-15T03:12:49.818Z,7.83
2023-04-15T03:15:21.248Z,8.00
2023-04-15T03:17:52.791Z,8.11
2023-04-15T03:20:21.211Z,8.11
2023-04-15T03:22:50.459Z,7.98
2023-04-15T03:25:20.831Z,7.98
2023-04-15T03:27:49.501Z,8.03
2023-04-15T03:30:18.736Z,7.85
2023-04-15T03:32:47.720Z,7.98
2023-04-15T03:35:16.498Z,7.91
2023-04-15T03:37:44.891Z,7.83
2023-04-15T03:40:13.229Z,7.78
2023-04-15T03:42:41.587Z,7.81
2023-04-15T03:45:10.172Z,7.76
2023-04-15T03:47:38.629Z,7.66
2023-04-15T03:50:07.379Z,7.72
2023-04-15T03:52:35.716Z,7.65
2023-04-15T03:55:04.313Z,7.84
2023-04-15T03:57:33.222Z,7.76
2023-04-15T04:00:01.653Z,7.64
2023-04-15T04:02:40.519Z,7.74
2023-04-15T04:05:09.335Z,7.71
2023-04-15T04:07:37.785Z,7.73
2023-04-15T04:10:06.834Z,7.75
2023-04-15T04:12:35.188Z,7.79
2023-04-15T04:15:03.715Z,7.85
2023-04-15T04:17:32.201Z,7.89
2023-04-15T04:20:00.645Z,7.98
2023-04-15T04:22:29.044Z,7.90
2023-04-15T04:24:59.454Z,7.90
2023-04-15T04:27:27.841Z,7.80
2023-04-15T04:29:56.409Z,7.82
2023-04-15T04:32:24.753Z,7.89
2023-04-15T04:34:53.428Z,7.78
2023-04-15T04:37:21.775Z,7.73
2023-04-15T04:39:50.291Z,7.81
2023-04-15T04:42:18.645Z,7.81
2023-04-15T04:44:47.190Z,7.82
2023-04-15T04:47:15.668Z,7.88
2023-04-15T04:49:44.071Z,7.85
2023-04-15T04:52:12.921Z,7.85
2023-04-15T04:54:41.293Z,7.85
2023-04-15T04:57:09.696Z,7.83
2023-04-15T04:59:38.060Z,7.64
2023-04-15T05:02:07.031Z,7.70
2023-04-15T05:04:37.008Z,7.63
2023-04-15T05:07:05.356Z,7.69
2023-04-15T05:09:36.156Z,7.84
2023-04-15T05:12:04.812Z,7.66
2023-04-15T05:14:33.329Z,7.73
2023-04-15T05:17:01.654Z,7.78
2023-04-15T05:19:29.972Z,7.75
2023-04-15T05:21:58.332Z,7.89
2023-04-15T05:24:27.250Z,7.96
2023-04-15T05:26:56.788Z,7.91
2023-04-15T05:29:25.127Z,8.08
2023-04-15T05:31:53.447Z,8.28
2023-04-15T05:34:21.826Z,8.53
2023-04-15T05:36:50.579Z,8.70
2023-04-15T05:39:19.112Z,8.88
2023-04-15T05:41:47.922Z,9.05
2023-04-15T05:44:16.569Z,9.23
2023-04-15T05:46:44.971Z,9.26
2023-04-15T05:49:13.295Z,9.42
2023-04-15T05:51:41.666Z,9.52
2023-04-15T05:54:10.024Z,9.66
2023-04-15T05:56:38.372Z,9.70
2023-04-15T05:59:07.519Z,9.81
2023-04-15T06:01:35.931Z,9.95
2023-04-15T06:04:04.635Z,10.01
2023-04-15T06:06:33.413Z,10.06
2023-04-15T06:09:02.081Z,10.09
2023-04-15T06:11:30.754Z,10.34
2023-04-15T06:13:59.188Z,10.46
2023-04-15T06:16:27.802Z,10.57
2023-04-15T06:18:56.206Z,10.68
2023-04-15T06:21:24.562Z,10.86
2023-04-15T06:23:53.234Z,11.22
2023-04-15T06:26:21.991Z,11.26
2023-04-15T06:28:50.695Z,11.41
2023-04-15T06:31:19.176Z,11.77
2023-04-15T06:33:47.562Z,11.95
2023-04-15T06:36:15.918Z,12.28
2023-04-15T06:38:44.269Z,12.72
2023-04-15T06:41:12.855Z,13.17
2023-04-15T06:43:41.204Z,14.72
2023-04-15T06:46:09.636Z,15.48
2023-04-15T06:48:38.076Z,16.10
2023-04-15T06:51:06.635Z,16.77
2023-04-15T06:53:35.670Z,18.40
2023-04-15T06:56:04.099Z,19.29
2023-04-15T06:58:32.414Z,20.05
2023-04-15T07:01:01.212Z,20.95
2023-04-15T07:03:31.445Z,19.81
2023-04-15T07:06:01.965Z,19.56
2023-04-15T07:08:30.600Z,18.60
2023-04-15T07:10:59.656Z,17.89
2023-04-15T07:13:27.999Z,17.31
2023-04-15T07:15:56.835Z,16.77
2023-04-15T07:18:25.529Z,16.36
2023-04-15T07:20:53.906Z,16.42
2023-04-15T07:23:22.494Z,16.71
2023-04-15T07:25:51.585Z,16.87
2023-04-15T07:28:20.032Z,17.11
2023-04-15T07:30:48.686Z,16.69
2023-04-15T07:33:17.107Z,16.22
2023-04-15T07:35:46.216Z,16.72
2023-04-15T07:38:14.631Z,17.13
2023-04-15T07:40:42.973Z,16.38
2023-04-15T07:43:11.356Z,16.53
2023-04-15T07:45:39.714Z,16.85
2023-04-15T07:48:08.421Z,16.97
2023-04-15T07:50:36.859Z,17.69
2023-04-15T07:53:06.314Z,17.70
2023-04-15T07:55:34.871Z,17.93
2023-04-15T07:58:03.209Z,16.56
2023-04-15T08:00:32.062Z,17.33
2023-04-15T08:03:00.495Z,17.16
2023-04-15T08:05:29.007Z,16.29
2023-04-15T08:07:57.424Z,16.92
2023-04-15T08:10:25.882Z,17.12
2023-04-15T08:12:55.021Z,17.86
2023-04-15T08:15:23.571Z,18.29
2023-04-15T08:17:52.059Z,19.34
2023-04-15T08:20:20.675Z,19.77
2023-04-15T08:22:51.950Z,19.97
2023-04-15T08:25:20.655Z,20.05
2023-04-15T08:27:49.099Z,19.12
2023-04-15T08:30:17.499Z,19.13
2023-04-15T08:32:47.000Z,19.88
2023-04-15T08:35:15.594Z,19.66
2023-04-15T08:37:44.047Z,20.28
2023-04-15T08:40:12.737Z,21.09
2023-04-15T08:42:45.782Z,21.06
2023-04-15T08:45:14.563Z,21.33
2023-04-15T08:47:43.153Z,21.36
2023-04-15T08:50:11.863Z,21.11
2023-04-15T08:52:40.325Z,22.17
2023-04-15T08:55:09.707Z,21.34
2023-04-15T08:57:38.176Z,21.91
2023-04-15T09:00:07.095Z,21.91
2023-04-15T09:02:36.039Z,22.31
2023-04-15T09:05:06.635Z,22.69
2023-04-15T09:07:36.499Z,22.47
2023-04-15T09:10:05.395Z,22.31
2023-04-15T09:12:37.338Z,22.59
2023-04-15T09:15:06.059Z,22.59
2023-04-15T09:17:34.710Z,22.78
2023-04-15T09:20:13.717Z,22.69
2023-04-15T09:22:43.344Z,22.68
2023-04-15T09:25:30.257Z,22.95
2023-04-15T09:28:03.853Z,23.00
2023-04-15T09:30:32.348Z,22.55
2023-04-15T09:33:08.890Z,22.44
2023-04-15T09:35:37.532Z,21.90
2023-04-15T09:38:09.881Z,22.03
2023-04-15T09:40:39.479Z,21.62
2023-04-15T09:43:08.849Z,21.40
2023-04-15T09:45:37.480Z,22.23
2023-04-15T09:48:27.245Z,22.24
2023-04-15T09:50:58.047Z,22.89
2023-04-15T09:53:26.545Z,22.39
2023-04-15T09:55:59.060Z,22.75
2023-04-15T09:58:28.716Z,23.22
2023-04-15T10:00:58.005Z,22.86
2023-04-15T10:03:27.689Z,23.20
2023-04-15T10:05:57.370Z,22.36
2023-04-15T10:08:27.122Z,23.02
2023-04-15T10:10:56.152Z,23.12
2023-04-15T10:13:26.088Z,23.60
2023-04-15T10:16:20.810Z,22.92
2023-04-15T10:18:54.559Z,23.23
2023-04-15T10:21:23.708Z,22.12
2023-04-15T10:23:52.193Z,22.96
2023-04-15T10:26:21.380Z,23.04
2023-04-15T10:28:50.161Z,23.57
2023-04-15T10:31:20.090Z,22.87
2023-04-15T10:33:49.701Z,22.33
2023-04-15T10:36:19.001Z,21.60
2023-04-15T10:38:47.498Z,21.08
2023-04-15T10:41:26.657Z,20.98
2023-04-15T10:44:02.188Z,20.86
2023-04-15T10:46:39.125Z,21.63
2023-04-15T10:49:09.696Z,20.93
2023-04-15T10:51:42.230Z,21.87
2023-04-15T10:54:14.234Z,21.83
2023-04-15T10:56:43.964Z,21.87
2023-04-15T10:59:12.432Z,21.06
2023-04-15T11:01:51.488Z,21.38
2023-04-15T11:04:39.876Z,20.59
2023-04-15T11:07:09.411Z,20.41
2023-04-15T11:09:37.884Z,20.97
2023-04-15T11:12:08.546Z,21.12
2023-04-15T11:14:41.968Z,21.73
2023-04-15T11:17:10.671Z,20.93
2023-04-15T11:19:39.375Z,21.63
2023-04-15T11:22:08.475Z,22.04
2023-04-15T11:24:46.751Z,22.15
2023-04-15T11:27:21.782Z,22.19
2023-04-15T11:29:50.258Z,22.00
2023-04-15T11:32:18.744Z,21.90
2023-04-15T11:34:48.492Z,21.84
2023-04-15T11:37:16.843Z,21.46
2023-04-15T11:39:45.163Z,21.37
2023-04-15T11:42:17.405Z,21.50
2023-04-15T11:44:45.924Z,21.07
2023-04-15T11:47:23.726Z,21.64
2023-04-15T11:49:52.213Z,20.58
2023-04-15T11:52:19.375Z,21.26
2023-04-15T11:54:46.928Z,21.86
2023-04-15T11:57:13.963Z,21.43
2023-04-15T11:59:45.761Z,20.53
2023-04-15T12:02:14.359Z,19.73
2023-04-15T12:04:42.381Z,20.45
2023-04-15T12:07:09.784Z,20.88
2023-04-15T12:09:40.081Z,21.00
2023-04-15T12:12:07.273Z,20.61
2023-04-15T12:14:34.514Z,21.13
2023-04-15T12:17:05.474Z,20.40
2023-04-15T12:19:35.769Z,19.99
2023-04-15T12:22:04.218Z,18.99
2023-04-15T12:24:31.922Z,18.48
2023-04-15T12:27:02.086Z,19.07
2023-04-15T12:29:30.188Z,19.60
2023-04-15T12:31:58.325Z,20.73
2023-04-15T12:34:30.626Z,20.77
2023-04-15T12:36:59.055Z,21.33
2023-04-15T12:39:28.656Z,20.35
2023-04-15T12:41:57.621Z,21.00
2023-04-15T12:44:24.725Z,21.34
2023-04-15T12:46:53.579Z,21.71
2023-04-15T12:49:21.293Z,21.45
2023-04-15T12:51:53.013Z,21.59
2023-04-15T12:54:20.463Z,21.80
2023-04-15T12:56:48.603Z,20.20
2023-04-15T12:59:16.920Z,20.91
2023-04-15T13:01:44.515Z,21.21
2023-04-15T13:04:11.666Z,21.22
2023-04-15T13:06:38.855Z,21.03
2023-04-15T13:09:06.350Z,21.09
2023-04-15T13:11:33.975Z,21.05
2023-04-15T13:14:01.953Z,20.41
2023-04-15T13:16:29.658Z,20.20
2023-04-15T13:18:56.836Z,19.96
2023-04-15T13:21:24.151Z,20.01
2023-04-15T13:23:51.511Z,19.92
2023-04-15T13:26:18.702Z,19.34
2023-04-15T13:28:46.270Z,19.40
2023-04-15T13:31:13.558Z,19.24
2023-04-15T13:33:41.040Z,18.98
2023-04-15T13:36:08.410Z,19.40
2023-04-15T13:38:35.463Z,19.33
2023-04-15T13:41:02.630Z,18.57
2023-04-15T13:43:29.701Z,18.32
2023-04-15T13:45:56.864Z,18.26
2023-04-15T13:48:23.968Z,18.12
2023-04-15T13:50:51.091Z,18.42
2023-04-15T13:53:18.139Z,18.26
2023-04-15T13:55:45.233Z,17.74
2023-04-15T13:58:12.302Z,17.92
2023-04-15T14:00:39.464Z,18.08
2023-04-15T14:03:06.754Z,18.04
2023-04-15T14:05:33.956Z,18.51
2023-04-15T14:08:01.044Z,18.29
2023-04-15T14:10:28.099Z,18.32
2023-04-15T14:12:55.265Z,18.11
2023-04-15T14:15:22.307Z,18.41
2023-04-15T14:17:49.639Z,18.50
2023-04-15T14:20:17.263Z,18.14
2023-04-15T14:22:44.524Z,17.73
2023-04-15T14:25:17.285Z,18.08
2023-04-15T14:27:50.570Z,18.50
2023-04-15T14:30:17.582Z,18.49
2023-04-15T14:32:44.700Z,18.21
2023-04-15T14:35:11.942Z,18.17
2023-04-15T14:37:39.132Z,18.34
2023-04-15T14:40:06.606Z,18.13
2023-04-15T14:42:33.757Z,17.99
2023-04-15T14:45:00.799Z,17.91
2023-04-15T14:47:27.973Z,17.90
2023-04-15T14:49:55.489Z,17.93
2023-04-15T14:52:22.621Z,17.82
2023-04-15T14:54:49.718Z,18.05
2023-04-15T14:57:16.818Z,18.01
2023-04-15T14:59:43.910Z,18.07
2023-04-15T15:02:12.855Z,18.13
2023-04-15T15:04:41.944Z,18.16
2023-04-15T15:07:09.036Z,18.19
2023-04-15T15:09:36.779Z,18.09
2023-04-15T15:12:03.975Z,18.07
2023-04-15T15:14:31.050Z,17.61
2023-04-15T15:16:58.137Z,17.65
2023-04-15T15:19:25.380Z,17.70
2023-04-15T15:21:52.450Z,17.46
2023-04-15T15:24:19.537Z,17.49
2023-04-15T15:26:46.626Z,17.47
2023-04-15T15:29:13.645Z,17.41
2023-04-15T15:31:40.780Z,17.44
2023-04-15T15:34:07.928Z,17.32
2023-04-15T15:36:35.091Z,17.38
2023-04-15T15:39:02.404Z,17.56
2023-04-15T15:41:29.923Z,17.47
2023-04-15T15:43:57.127Z,17.57
2023-04-15T15:46:24.297Z,17.55
2023-04-15T15:48:51.642Z,17.53
2023-04-15T15:51:18.755Z,17.30
2023-04-15T15:53:45.842Z,17.35
2023-04-15T15:56:12.959Z,17.31
2023-04-15T15:58:40.095Z,17.27
2023-04-15T16:01:07.332Z,17.14
2023-04-15T16:03:37.417Z,17.09
2023-04-15T16:06:05.010Z,17.26
2023-04-15T16:08:32.099Z,17.28
2023-04-15T16:10:59.155Z,17.28
2023-04-15T16:13:26.256Z,17.48
2023-04-15T16:15:53.379Z,17.36
2023-04-15T16:18:20.796Z,17.21
2023-04-15T16:20:47.913Z,16.90
2023-04-15T16:23:16.055Z,17.01
2023-04-15T16:25:44.112Z,16.98
2023-04-15T16:28:25.141Z,16.81
2023-04-15T16:30:53.954Z,16.82
2023-04-15T16:33:21.116Z,16.74
2023-04-15T16:35:48.258Z,16.63
2023-04-15T16:38:15.570Z,16.77
2023-04-15T16:40:42.694Z,16.79
2023-04-15T16:43:11.508Z,16.71
2023-04-15T16:45:38.786Z,16.63
2023-04-15T16:48:06.121Z,16.48
2023-04-15T16:50:33.177Z,16.49
2023-04-15T16:53:01.224Z,16.21
2023-04-15T16:55:28.365Z,16.19
2023-04-15T16:58:01.624Z,16.18
2023-04-15T17:00:30.163Z,16.21
2023-04-15T17:02:57.549Z,16.24
2023-04-15T17:05:25.177Z,16.31
2023-04-15T17:07:52.312Z,16.14
2023-04-15T17:10:19.363Z,16.09
2023-04-15T17:12:46.465Z,16.09
2023-04-15T17:15:13.507Z,16.19
2023-04-15T17:17:46.264Z,15.90
2023-04-15T17:20:13.421Z,15.74
2023-04-15T17:22:41.012Z,15.72
2023-04-15T17:25:08.362Z,15.54
2023-04-15T17:27:41.395Z,15.42
2023-04-15T17:30:15.108Z,15.45
2023-04-15T17:33:02.170Z,15.39
2023-04-15T17:35:29.382Z,15.46
2023-04-15T17:38:16.339Z,15.34
2023-04-15T17:41:03.332Z,15.25
2023-04-15T17:43:53.377Z,15.15
2023-04-15T17:46:40.683Z,15.16
2023-04-15T17:49:27.782Z,15.13
2023-04-15T17:52:14.761Z,15.15
2023-04-15T17:55:02.493Z,15.11
2023-04-15T17:57:49.556Z,15.11
2023-04-15T18:00:36.762Z,14.88
2023-04-15T18:03:23.976Z,15.05
2023-04-15T18:06:11.405Z,14.83
2023-04-15T18:08:58.436Z,14.95
2023-04-15T18:11:47.362Z,14.92
2023-04-15T18:14:35.209Z,14.89
2023-04-15T18:17:22.365Z,14.84
2023-04-15T18:20:09.554Z,14.72
2023-04-15T18:22:36.761Z,14.63
2023-04-15T18:25:04.446Z,14.65
2023-04-15T18:27:33.110Z,14.59
2023-04-15T18:30:00.228Z,14.65
2023-04-15T18:32:31.649Z,14.61
2023-04-15T18:34:59.054Z,14.43
2023-04-15T18:37:26.889Z,14.45
2023-04-15T18:39:54.189Z,14.50
2023-04-15T18:42:22.395Z,14.57
2023-04-15T18:44:49.587Z,14.39
2023-04-15T18:47:16.942Z,14.25
2023-04-15T18:49:44.040Z,14.23
2023-04-15T18:52:11.143Z,14.15
2023-04-15T18:54:38.438Z,14.26
2023-04-15T18:57:06.436Z,14.20
2023-04-15T18:59:34.734Z,14.08
2023-04-15T19:02:06.238Z,14.20
2023-04-15T19:04:33.574Z,14.20
2023-04-15T19:07:01.390Z,14.08
2023-04-15T19:09:28.794Z,14.08
2023-04-15T19:11:56.766Z,14.06
2023-04-15T19:14:23.986Z,13.93
2023-04-15T19:16:51.157Z,13.85
2023-04-15T19:19:18.341Z,13.95
2023-04-15T19:21:49.701Z,14.03
2023-04-15T19:24:17.913Z,13.92
2023-04-15T19:26:47.190Z,13.72
2023-04-15T19:29:14.505Z,13.60
2023-04-15T19:31:41.802Z,13.72
2023-04-15T19:34:08.818Z,13.65
2023-04-15T19:36:36.164Z,13.63
2023-04-15T19:39:03.411Z,13.79
2023-04-15T19:41:30.632Z,13.71
2023-04-15T19:43:57.846Z,13.62
2023-04-15T19:46:25.003Z,13.53
2023-04-15T19:48:53.130Z,13.69
2023-04-15T19:51:20.215Z,13.75
2023-04-15T19:53:49.470Z,13.65
2023-04-15T19:56:16.975Z,13.63
2023-04-15T19:58:46.881Z,13.78
2023-04-15T20:01:14.098Z,13.49
2023-04-15T20:03:41.574Z,13.55
2023-04-15T20:06:08.872Z,13.45
2023-04-15T20:08:35.976Z,13.36
2023-04-15T20:11:03.178Z,13.28
2023-04-15T20:13:30.234Z,13.39
2023-04-15T20:15:57.340Z,13.43
2023-04-15T20:18:24.498Z,13.38
2023-04-15T20:20:51.540Z,13.41
2023-04-15T20:23:18.652Z,13.50
2023-04-15T20:25:45.946Z,13.34
2023-04-15T20:28:13.022Z,13.30
2023-04-15T20:30:40.294Z,13.33
2023-04-15T20:33:08.117Z,13.42
2023-04-15T20:35:35.481Z,13.38
2023-04-15T20:38:04.066Z,13.19
2023-04-15T20:40:33.678Z,13.31
2023-04-15T20:43:00.895Z,13.25
2023-04-15T20:45:27.951Z,13.24
2023-04-15T20:47:56.112Z,13.13
2023-04-15T20:50:23.233Z,13.11
2023-04-15T20:52:50.549Z,13.23
2023-04-15T20:55:17.751Z,13.20
2023-04-15T20:57:44.939Z,13.08
2023-04-15T21:00:12.206Z,13.22
2023-04-15T21:02:39.464Z,13.10
2023-04-15T21:05:06.875Z,12.91
2023-04-15T21:07:33.955Z,12.94
2023-04-15T21:10:01.167Z,12.90
2023-04-15T21:12:28.231Z,12.89
2023-04-15T21:14:55.452Z,12.95
2023-04-15T21:17:22.677Z,12.91
2023-04-15T21:19:49.914Z,12.88
2023-04-15T21:22:16.950Z,12.88
2023-04-15T21:24:44.006Z,12.82
2023-04-15T21:27:11.105Z,12.86
2023-04-15T21:29:40.324Z,13.04
2023-04-15T21:32:07.608Z,12.95
2023-04-15T21:34:34.876Z,12.83
2023-04-15T21:37:02.033Z,12.92
2023-04-15T21:39:29.196Z,12.93
2023-04-15T21:41:57.881Z,12.88
2023-04-15T21:44:25.088Z,12.88
2023-04-15T21:46:52.241Z,12.87
2023-04-15T21:49:20.434Z,12.78
2023-04-15T21:51:48.015Z,12.87
2023-04-15T21:54:15.530Z,12.88
2023-04-15T21:56:43.119Z,12.89
2023-04-15T21:59:10.368Z,12.74
2023-04-15T22:01:37.568Z,12.70
2023-04-15T22:04:06.003Z,12.69
2023-04-15T22:06:33.307Z,12.66
2023-04-15T22:09:00.396Z,12.60
2023-04-15T22:11:28.454Z,12.59
2023-04-15T22:13:57.256Z,12.53
2023-04-15T22:16:25.467Z,12.56
2023-04-15T22:18:52.625Z,12.50
2023-04-15T22:21:19.798Z,12.43
2023-04-15T22:23:47.589Z,12.63
2023-04-15T22:26:14.825Z,12.69
2023-04-15T22:28:42.067Z,12.54
2023-04-15T22:31:09.375Z,12.50
2023-04-15T22:33:36.534Z,12.43
2023-04-15T22:36:03.910Z,12.53
2023-04-15T22:38:31.132Z,12.50
2023-04-15T22:40:58.487Z,12.60
2023-04-15T22:43:27.414Z,12.50
2023-04-15T22:45:55.211Z,12.43
2023-04-15T22:48:23.057Z,12.59
2023-04-15T22:50:50.310Z,12.44
2023-04-15T22:53:17.811Z,12.34
2023-04-15T22:55:46.506Z,12.32
2023-04-15T22:58:13.826Z,12.07
2023-04-15T23:00:41.989Z,11.81
2023-04-15T23:03:09.410Z,11.85
2023-04-15T23:05:36.934Z,11.81
2023-04-15T23:08:03.988Z,11.78
2023-04-15T23:10:31.213Z,11.74
2023-04-15T23:12:58.333Z,11.68
2023-04-15T23:15:25.777Z,11.59
2023-04-15T23:17:52.942Z,11.53
2023-04-15T23:20:20.035Z,11.44
2023-04-15T23:22:47.120Z,11.56
2023-04-15T23:25:14.227Z,11.64
2023-04-15T23:27:41.272Z,11.67
2023-04-15T23:30:08.520Z,11.87
2023-04-15T23:32:35.899Z,11.91
2023-04-15T23:35:03.093Z,11.82
2023-04-15T23:37:31.574Z,11.77
2023-04-15T23:39:58.693Z,11.75
2023-04-15T23:42:25.948Z,11.62
2023-04-15T23:44:53.145Z,11.53
2023-04-15T23:47:21.022Z,11.27
2023-04-15T23:49:48.227Z,11.19
2023-04-15T23:52:15.327Z,11.20
2023-04-15T23:54:42.409Z,10.93
2023-04-15T23:57:09.506Z,10.78
2023-04-15T23:59:36.691Z,10.88
